Terminal Aerodrome Forecast
Issued by NWS

Home | Current Version | Previous Version | Text Only | Print | Product List | Glossary On
Versions: 1 2 3 4 5 6 7 8 9 10 11 12 13 14 15 16 17 18 19 20 21 22
000
FTUS43 KJKL 160531
TAFSME
TAF
KSME 160531Z 1606/1706 10003KT P6SM VCSH FEW030 BKN050
     FM160700 14007KT 5SM -SHRA BR VCTS BKN025CB OVC040
     FM161600 16007KT P6SM VCSH SCT025 BKN040=

USA.gov is the U.S. government's official web portal to all federal, state and local government web resources and services.